KERY

Luce County Airport

Newberry, Michigan, USA
METAR KERY 221735Z AUTO 31003KT 10SM BKN038 20/09 A3001 RMK AO2 T02010087
Observed Flight Rules
May-22 @ 17:35 UTC (17 minutes ago) Visual Flight Rules
Wind Visibility Clouds
310° at 3 knots 10 miles
  • Broken at 3,800' AGL
Temperatures Readings
Current 20°C / 68°F
Dewpoint 9°C / 48°F
Humidity 49%
Altimeter 30.01" Hg
Pressure 1016 hPa
Elevation 265
METAR KERY 221735Z AUTO 31003KT 10SM BKN038 20/09 A3001 RMK AO2 T02010087
Observed Flight Rules
May-22 @ 17:35 UTC
(17 minutes ago)
VFR
Wind Visibility
310° at 3 knots 10 miles
Clouds
  • Broken at 3,800' AGL
Temperature Dewpoint
20°C / 68°F 9°C / 48°F
Humidity Altimeter Pressure
49% 30.01" Hg 1016 hPa